sensor_id;sensor_type;location;lat;lon;timestamp;pressure;altitude;pressure_sealevel;temperature;humidity
8748;BME280;4410;42.120;24.738;2022-07-29T00:00:03;99548.06;;;22.39;100.00
8748;BME280;4410;42.120;24.738;2022-07-29T00:02:30;99551.13;;;22.38;100.00
8748;BME280;4410;42.120;24.738;2022-07-29T00:04:59;99558.66;;;22.37;100.00
8748;BME280;4410;42.120;24.738;2022-07-29T00:10:49;99529.50;;;22.12;100.00
8748;BME280;4410;42.120;24.738;2022-07-29T00:13:15;99421.09;;;21.60;100.00
8748;BME280;4410;42.120;24.738;2022-07-29T00:15:44;99542.00;;;22.37;100.00
8748;BME280;4410;42.120;24.738;2022-07-29T00:18:13;99532.03;;;22.22;100.00
8748;BME280;4410;42.120;24.738;2022-07-29T00:24:05;99538.91;;;22.39;100.00
8748;BME280;4410;42.120;24.738;2022-07-29T00:26:32;99538.91;;;22.39;100.00
8748;BME280;4410;42.120;24.738;2022-07-29T00:35:16;99382.13;;;21.42;100.00
8748;BME280;4410;42.120;24.738;2022-07-29T00:44:14;99166.38;;;20.10;100.00
8748;BME280;4410;42.120;24.738;2022-07-29T00:53:19;99371.47;;;21.36;100.00
8748;BME280;4410;42.120;24.738;2022-07-29T01:02:15;99322.84;;;21.16;100.00
8748;BME280;4410;42.120;24.738;2022-07-29T01:07:51;99546.22;;;22.48;100.00
8748;BME280;4410;42.120;24.738;2022-07-29T01:10:20;99416.16;;;21.70;100.00
8748;BME280;4410;42.120;24.738;2022-07-29T01:12:49;99529.50;;;22.26;100.00
8748;BME280;4410;42.120;24.738;2022-07-29T01:15:16;99190.59;;;19.99;100.00
8748;BME280;4410;42.120;24.738;2022-07-29T01:17:52;99012.09;;;19.12;100.00
8748;BME280;4410;42.120;24.738;2022-07-29T01:20:26;99551.94;;;22.38;100.00
8748;BME280;4410;42.120;24.738;2022-07-29T01:29:35;99521.50;;;22.11;100.00
8748;BME280;4410;42.120;24.738;2022-07-29T01:32:06;99256.34;;;20.35;100.00
8748;BME280;4410;42.120;24.738;2022-07-29T01:41:20;99426.22;;;21.52;100.00
8748;BME280;4410;42.120;24.738;2022-07-29T01:43:51;99545.63;;;22.24;100.00
8748;BME280;4410;42.120;24.738;2022-07-29T01:46:26;99545.63;;;22.24;100.00
8748;BME280;4410;42.120;24.738;2022-07-29T01:49:09;99548.91;;;22.26;100.00
8748;BME280;4410;42.120;24.738;2022-07-29T01:51:42;99418.00;;;21.47;100.00
8748;BME280;4410;42.120;24.738;2022-07-29T01:54:35;99537.31;;;22.24;100.00
8748;BME280;4410;42.120;24.738;2022-07-29T01:57:06;99556.47;;;22.20;100.00
8748;BME280;4410;42.120;24.738;2022-07-29T01:59:36;99121.97;;;19.42;100.00
8748;BME280;4410;42.120;24.738;2022-07-29T02:02:14;99539.75;;;22.12;100.00
8748;BME280;4410;42.120;24.738;2022-07-29T02:08:10;99255.50;;;19.83;100.00
8748;BME280;4410;42.120;24.738;2022-07-29T02:10:40;99343.81;;;20.26;100.00
8748;BME280;4410;42.120;24.738;2022-07-29T02:13:07;99404.16;;;20.56;100.00
8748;BME280;4410;42.120;24.738;2022-07-29T02:15:36;99545.13;;;21.30;100.00
8748;BME280;4410;42.120;24.738;2022-07-29T02:18:15;99539.19;;;21.23;100.00
8748;BME280;4410;42.120;24.738;2022-07-29T02:20:44;99536.78;;;21.17;100.00
8748;BME280;4410;42.120;24.738;2022-07-29T02:23:14;99537.72;;;21.12;100.00
8748;BME280;4410;42.120;24.738;2022-07-29T02:25:48;99532.84;;;21.04;100.00
8748;BME280;4410;42.120;24.738;2022-07-29T02:28:23;99452.34;;;20.50;100.00
8748;BME280;4410;42.120;24.738;2022-07-29T02:34:14;99537.09;;;20.97;100.00
8748;BME280;4410;42.120;24.738;2022-07-29T02:36:43;99365.31;;;19.91;100.00
8748;BME280;4410;42.120;24.738;2022-07-29T02:45:24;99411.38;;;20.15;100.00
8748;BME280;4410;42.120;24.738;2022-07-29T02:51:42;99179.09;;;18.62;100.00
8748;BME280;4410;42.120;24.738;2022-07-29T03:03:29;99546.22;;;20.97;100.00
8748;BME280;4410;42.120;24.738;2022-07-29T03:05:59;99540.16;;;20.95;100.00
8748;BME280;4410;42.120;24.738;2022-07-29T03:08:29;99479.94;;;20.55;100.00
8748;BME280;4410;42.120;24.738;2022-07-29T03:10:57;99427.03;;;20.24;100.00
8748;BME280;4410;42.120;24.738;2022-07-29T03:13:25;99357.78;;;19.78;100.00
8748;BME280;4410;42.120;24.738;2022-07-29T03:15:57;98764.75;;;16.18;100.00
8748;BME280;4410;42.120;24.738;2022-07-29T03:18:27;99103.66;;;18.29;100.00
8748;BME280;4410;42.120;24.738;2022-07-29T03:20:58;99342.31;;;19.77;100.00
8748;BME280;4410;42.120;24.738;2022-07-29T03:23:25;99548.25;;;21.10;100.00
8748;BME280;4410;42.120;24.738;2022-07-29T03:25:57;99175.66;;;18.70;100.00
8748;BME280;4410;42.120;24.738;2022-07-29T03:28:27;99526.28;;;20.82;100.00
8748;BME280;4410;42.120;24.738;2022-07-29T03:30:57;99107.88;;;18.45;100.00
8748;BME280;4410;42.120;24.738;2022-07-29T03:33:27;99339.41;;;19.87;100.00
8748;BME280;4410;42.120;24.738;2022-07-29T03:35:56;99249.84;;;19.32;100.00
8748;BME280;4410;42.120;24.738;2022-07-29T03:38:30;99355.66;;;20.07;100.00
8748;BME280;4410;42.120;24.738;2022-07-29T03:41:04;99571.44;;;21.46;100.00
8748;BME280;4410;42.120;24.738;2022-07-29T03:43:35;99565.94;;;21.60;100.00
8748;BME280;4410;42.120;24.738;2022-07-29T03:46:06;99571.09;;;21.67;100.00
8748;BME280;4410;42.120;24.738;2022-07-29T03:48:36;99398.75;;;20.64;100.00
8748;BME280;4410;42.120;24.738;2022-07-29T03:51:04;99567.63;;;21.75;100.00
8748;BME280;4410;42.120;24.738;2022-07-29T03:53:31;99456.72;;;21.07;100.00
8748;BME280;4410;42.120;24.738;2022-07-29T03:56:03;98972.13;;;18.16;100.00
8748;BME280;4410;42.120;24.738;2022-07-29T03:58:34;99571.66;;;21.96;100.00
8748;BME280;4410;42.120;24.738;2022-07-29T04:01:02;99565.44;;;22.04;100.00
8748;BME280;4410;42.120;24.738;2022-07-29T04:03:29;99276.78;;;20.34;100.00
8748;BME280;4410;42.120;24.738;2022-07-29T04:06:03;99477.50;;;21.64;100.00
8748;BME280;4410;42.120;24.738;2022-07-29T04:08:31;99567.47;;;22.12;100.00
8748;BME280;4410;42.120;24.738;2022-07-29T04:14:23;99523.53;;;21.92;100.00
8748;BME280;4410;42.120;24.738;2022-07-29T04:16:49;99516.38;;;21.91;100.00
8748;BME280;4410;42.120;24.738;2022-07-29T04:25:33;99418.22;;;21.37;100.00
8748;BME280;4410;42.120;24.738;2022-07-29T04:28:02;99593.66;;;22.47;100.00
8748;BME280;4410;42.120;24.738;2022-07-29T04:30:35;99584.91;;;22.80;100.00
8748;BME280;4410;42.120;24.738;2022-07-29T04:33:04;99359.28;;;22.58;100.00
8748;BME280;4410;42.120;24.738;2022-07-29T04:35:34;99141.56;;;22.94;100.00
8748;BME280;4410;42.120;24.738;2022-07-29T04:38:05;99181.38;;;24.61;100.00
8748;BME280;4410;42.120;24.738;2022-07-29T04:40:33;99594.56;;;27.91;100.00
8748;BME280;4410;42.120;24.738;2022-07-29T04:43:03;99537.16;;;28.30;92.04
8748;BME280;4410;42.120;24.738;2022-07-29T04:45:34;99097.63;;;26.80;82.05
8748;BME280;4410;42.120;24.738;2022-07-29T04:48:05;99523.25;;;30.08;71.53
8748;BME280;4410;42.120;24.738;2022-07-29T04:50:37;99412.38;;;30.34;64.37
8748;BME280;4410;42.120;24.738;2022-07-29T04:53:05;99464.78;;;31.18;59.93
8748;BME280;4410;42.120;24.738;2022-07-29T04:55:33;99138.25;;;30.06;55.82
8748;BME280;4410;42.120;24.738;2022-07-29T04:58:05;99245.59;;;30.38;53.08
8748;BME280;4410;42.120;24.738;2022-07-29T05:00:34;99026.44;;;29.28;53.36
8748;BME280;4410;42.120;24.738;2022-07-29T05:03:04;99598.22;;;33.73;50.09
8748;BME280;4410;42.120;24.738;2022-07-29T05:05:34;99413.53;;;33.04;48.15
8748;BME280;4410;42.120;24.738;2022-07-29T05:08:04;99496.59;;;33.40;47.32
8748;BME280;4410;42.120;24.738;2022-07-29T05:10:38;99298.34;;;32.70;46.73
8748;BME280;4410;42.120;24.738;2022-07-29T05:13:05;99417.69;;;33.98;44.39
8748;BME280;4410;42.120;24.738;2022-07-29T05:15:37;99610.47;;;36.20;42.50
8748;BME280;4410;42.120;24.738;2022-07-29T05:18:08;99246.72;;;33.50;42.29
8748;BME280;4410;42.120;24.738;2022-07-29T05:20:35;99596.53;;;34.97;43.50
8748;BME280;4410;42.120;24.738;2022-07-29T05:26:51;99603.34;;;31.73;54.38
8748;BME280;4410;42.120;24.738;2022-07-29T05:42:23;99606.28;;;33.75;49.93
8748;BME280;4410;42.120;24.738;2022-07-29T05:44:53;99131.84;;;32.12;45.36
8748;BME280;4410;42.120;24.738;2022-07-29T05:47:23;99158.16;;;33.65;42.63
8748;BME280;4410;42.120;24.738;2022-07-29T05:50:23;99629.56;;;36.44;41.58
8748;BME280;4410;42.120;24.738;2022-07-29T05:59:42;99537.19;;;36.22;41.01
8748;BME280;4410;42.120;24.738;2022-07-29T06:02:11;99544.44;;;36.86;39.50
8748;BME280;4410;42.120;24.738;2022-07-29T06:04:41;99602.81;;;36.80;39.77
8748;BME280;4410;42.120;24.738;2022-07-29T06:07:11;99294.47;;;33.69;41.43
8748;BME280;4410;42.120;24.738;2022-07-29T06:09:41;99311.28;;;35.02;39.88
8748;BME280;4410;42.120;24.738;2022-07-29T06:12:12;99644.63;;;38.12;38.69
8748;BME280;4410;42.120;24.738;2022-07-29T06:14:43;99641.88;;;38.60;36.74
8748;BME280;4410;42.120;24.738;2022-07-29T06:17:11;99435.16;;;36.15;38.32
8748;BME280;4410;42.120;24.738;2022-07-29T06:19:42;99664.78;;;37.49;38.83
8748;BME280;4410;42.120;24.738;2022-07-29T06:22:12;99574.59;;;37.67;37.39
8748;BME280;4410;42.120;24.738;2022-07-29T06:28:00;99635.53;;;39.34;35.54
8748;BME280;4410;42.120;24.738;2022-07-29T06:30:29;99580.50;;;39.07;34.92
8748;BME280;4410;42.120;24.738;2022-07-29T06:33:00;99344.22;;;38.02;34.31
8748;BME280;4410;42.120;24.738;2022-07-29T06:35:33;99564.19;;;39.78;33.71
8748;BME280;4410;42.120;24.738;2022-07-29T06:38:32;99636.06;;;40.50;33.55
8748;BME280;4410;42.120;24.738;2022-07-29T06:41:21;99641.56;;;41.10;33.02
8748;BME280;4410;42.120;24.738;2022-07-29T06:43:54;98980.28;;;32.72;38.18
8748;BME280;4410;42.120;24.738;2022-07-29T06:46:30;99123.66;;;33.31;39.90
8748;BME280;4410;42.120;24.738;2022-07-29T06:48:57;99639.59;;;36.10;40.58
8748;BME280;4410;42.120;24.738;2022-07-29T06:51:36;98989.66;;;31.92;41.25
8748;BME280;4410;42.120;24.738;2022-07-29T06:54:03;99643.41;;;35.52;41.68
8748;BME280;4410;42.120;24.738;2022-07-29T06:56:34;99616.16;;;36.23;40.74
8748;BME280;4410;42.120;24.738;2022-07-29T06:59:03;99627.78;;;35.14;42.18
8748;BME280;4410;42.120;24.738;2022-07-29T07:01:32;99627.72;;;35.72;40.69
8748;BME280;4410;42.120;24.738;2022-07-29T07:04:14;99102.94;;;32.55;40.93
8748;BME280;4410;42.120;24.738;2022-07-29T07:06:50;99198.53;;;32.74;41.90
8748;BME280;4410;42.120;24.738;2022-07-29T07:09:17;99226.78;;;32.81;41.96
8748;BME280;4410;42.120;24.738;2022-07-29T07:11:44;99161.78;;;32.27;42.07
8748;BME280;4410;42.120;24.738;2022-07-29T07:14:14;99613.59;;;35.04;42.21
8748;BME280;4410;42.120;24.738;2022-07-29T07:16:46;99619.72;;;35.96;40.17
8748;BME280;4410;42.120;24.738;2022-07-29T07:19:14;98867.84;;;31.14;40.24
8748;BME280;4410;42.120;24.738;2022-07-29T07:21:46;99462.09;;;35.20;39.99
8748;BME280;4410;42.120;24.738;2022-07-29T07:24:16;99577.69;;;36.40;38.96
8748;BME280;4410;42.120;24.738;2022-07-29T07:26:46;99629.56;;;36.61;38.26
8748;BME280;4410;42.120;24.738;2022-07-29T07:32:22;99457.78;;;35.65;38.88
8748;BME280;4410;42.120;24.738;2022-07-29T07:38:18;99573.66;;;36.62;37.94
8748;BME280;4410;42.120;24.738;2022-07-29T07:40:48;99619.69;;;35.88;39.70
8748;BME280;4410;42.120;24.738;2022-07-29T07:43:20;99549.63;;;34.89;40.46
8748;BME280;4410;42.120;24.738;2022-07-29T07:45:50;99389.75;;;33.39;40.95
8748;BME280;4410;42.120;24.738;2022-07-29T07:48:21;99239.44;;;31.95;42.20
8748;BME280;4410;42.120;24.738;2022-07-29T07:50:50;99092.31;;;30.60;43.67
8748;BME280;4410;42.120;24.738;2022-07-29T07:53:21;99540.31;;;33.53;42.30
8748;BME280;4410;42.120;24.738;2022-07-29T07:55:56;99234.53;;;31.13;42.90
8748;BME280;4410;42.120;24.738;2022-07-29T07:58:23;99586.75;;;33.30;43.12
8748;BME280;4410;42.120;24.738;2022-07-29T08:00:50;99538.06;;;33.06;42.32
8748;BME280;4410;42.120;24.738;2022-07-29T08:03:19;99245.94;;;31.46;39.35
8748;BME280;4410;42.120;24.738;2022-07-29T08:05:49;99332.47;;;31.79;39.43
8748;BME280;4410;42.120;24.738;2022-07-29T08:08:20;99622.72;;;33.66;39.39
8748;BME280;4410;42.120;24.738;2022-07-29T08:14:07;99632.06;;;33.44;40.45
8748;BME280;4410;42.120;24.738;2022-07-29T08:16:34;99601.97;;;33.51;41.18
8748;BME280;4410;42.120;24.738;2022-07-29T08:19:09;99229.16;;;31.27;40.18
8748;BME280;4410;42.120;24.738;2022-07-29T08:21:36;99017.13;;;30.04;39.31
8748;BME280;4410;42.120;24.738;2022-07-29T08:24:07;99540.09;;;33.39;38.88
8748;BME280;4410;42.120;24.738;2022-07-29T08:27:11;99590.94;;;33.43;38.82
8748;BME280;4410;42.120;24.738;2022-07-29T08:29:38;98963.44;;;29.64;39.03
8748;BME280;4410;42.120;24.738;2022-07-29T08:32:11;99379.66;;;32.12;39.02
8748;BME280;4410;42.120;24.738;2022-07-29T08:34:39;99232.09;;;31.60;36.85
8748;BME280;4410;42.120;24.738;2022-07-29T08:37:25;99584.81;;;33.67;37.34
8748;BME280;4410;42.120;24.738;2022-07-29T08:39:52;99409.59;;;32.79;37.22
8748;BME280;4410;42.120;24.738;2022-07-29T08:42:44;99571.34;;;33.90;37.01
8748;BME280;4410;42.120;24.738;2022-07-29T08:45:11;99051.03;;;30.64;37.77
8748;BME280;4410;42.120;24.738;2022-07-29T08:47:55;99550.41;;;33.91;36.98
8748;BME280;4410;42.120;24.738;2022-07-29T08:50:26;99168.25;;;31.64;38.00
8748;BME280;4410;42.120;24.738;2022-07-29T08:52:57;99448.00;;;33.21;37.97
8748;BME280;4410;42.120;24.738;2022-07-29T08:55:24;99243.06;;;31.69;38.07
8748;BME280;4410;42.120;24.738;2022-07-29T08:57:52;99219.16;;;31.86;37.86
8748;BME280;4410;42.120;24.738;2022-07-29T09:00:56;99551.63;;;34.34;37.15
8748;BME280;4410;42.120;24.738;2022-07-29T09:03:31;98969.31;;;30.76;36.93
8748;BME280;4410;42.120;24.738;2022-07-29T09:06:01;99547.97;;;34.84;36.45
8748;BME280;4410;42.120;24.738;2022-07-29T09:08:28;99357.50;;;33.40;36.03
8748;BME280;4410;42.120;24.738;2022-07-29T09:11:01;99349.59;;;33.12;35.10
8748;BME280;4410;42.120;24.738;2022-07-29T09:13:29;99413.69;;;33.52;34.89
8748;BME280;4410;42.120;24.738;2022-07-29T09:15:58;99420.84;;;33.46;35.24
8748;BME280;4410;42.120;24.738;2022-07-29T09:18:35;99399.75;;;33.33;35.59
8748;BME280;4410;42.120;24.738;2022-07-29T09:24:44;99165.25;;;31.84;35.20
8748;BME280;4410;42.120;24.738;2022-07-29T09:27:27;99205.31;;;32.66;33.23
8748;BME280;4410;42.120;24.738;2022-07-29T09:30:02;99182.31;;;32.64;32.66
8748;BME280;4410;42.120;24.738;2022-07-29T09:32:30;99389.09;;;33.16;32.90
8748;BME280;4410;42.120;24.738;2022-07-29T09:38:18;99285.16;;;33.18;33.43
8748;BME280;4410;42.120;24.738;2022-07-29T09:41:05;99389.97;;;34.07;32.92
8748;BME280;4410;42.120;24.738;2022-07-29T09:43:59;99055.50;;;31.50;32.63
8748;BME280;4410;42.120;24.738;2022-07-29T09:53:37;99510.25;;;35.31;32.10
8748;BME280;4410;42.120;24.738;2022-07-29T09:59:35;99233.50;;;33.54;30.69
8748;BME280;4410;42.120;24.738;2022-07-29T10:05:33;99444.69;;;35.15;31.34
8748;BME280;4410;42.120;24.738;2022-07-29T10:08:01;99167.16;;;33.27;31.48
8748;BME280;4410;42.120;24.738;2022-07-29T10:10:29;99194.16;;;33.96;30.66
8748;BME280;4410;42.120;24.738;2022-07-29T10:13:18;99507.50;;;35.52;30.04
8748;BME280;4410;42.120;24.738;2022-07-29T10:16:23;99505.97;;;35.93;30.47
8748;BME280;4410;42.120;24.738;2022-07-29T10:19:16;99409.25;;;35.84;30.64
8748;BME280;4410;42.120;24.738;2022-07-29T10:21:46;99150.00;;;33.53;31.52
8748;BME280;4410;42.120;24.738;2022-07-29T10:24:13;99481.97;;;35.38;30.88
8748;BME280;4410;42.120;24.738;2022-07-29T10:27:18;99498.25;;;35.76;29.48
8748;BME280;4410;42.120;24.738;2022-07-29T10:29:47;99392.63;;;34.47;30.53
8748;BME280;4410;42.120;24.738;2022-07-29T10:35:38;99484.41;;;35.36;30.98
8748;BME280;4410;42.120;24.738;2022-07-29T10:51:20;99466.22;;;36.92;30.04
8748;BME280;4410;42.120;24.738;2022-07-29T10:53:54;99190.44;;;34.75;30.72
8748;BME280;4410;42.120;24.738;2022-07-29T10:56:51;99395.06;;;35.91;31.41
8748;BME280;4410;42.120;24.738;2022-07-29T10:59:25;99203.69;;;34.49;32.06
8748;BME280;4410;42.120;24.738;2022-07-29T11:05:06;99096.31;;;34.64;30.44
8748;BME280;4410;42.120;24.738;2022-07-29T11:07:40;98983.22;;;34.04;30.80
8748;BME280;4410;42.120;24.738;2022-07-29T11:28:13;99424.97;;;36.70;31.43
8748;BME280;4410;42.120;24.738;2022-07-29T11:31:35;99420.59;;;35.99;32.24
8748;BME280;4410;42.120;24.738;2022-07-29T11:34:23;99268.06;;;35.34;32.00
8748;BME280;4410;42.120;24.738;2022-07-29T11:44:12;99405.91;;;36.63;31.94
8748;BME280;4410;42.120;24.738;2022-07-29T11:47:11;99403.56;;;36.20;32.53
8748;BME280;4410;42.120;24.738;2022-07-29T11:49:54;99411.47;;;37.02;31.59
8748;BME280;4410;42.120;24.738;2022-07-29T11:52:23;99078.47;;;35.27;30.51
8748;BME280;4410;42.120;24.738;2022-07-29T11:55:12;99044.16;;;34.12;31.60
8748;BME280;4410;42.120;24.738;2022-07-29T11:57:55;99236.91;;;35.72;30.69
8748;BME280;4410;42.120;24.738;2022-07-29T12:00:28;99385.34;;;36.24;31.33
8748;BME280;4410;42.120;24.738;2022-07-29T12:03:09;99031.59;;;35.22;30.87
8748;BME280;4410;42.120;24.738;2022-07-29T12:05:41;99326.06;;;37.41;30.31
8748;BME280;4410;42.120;24.738;2022-07-29T12:08:12;98891.63;;;33.80;31.06
8748;BME280;4410;42.120;24.738;2022-07-29T12:10:41;99041.72;;;35.23;30.83
8748;BME280;4410;42.120;24.738;2022-07-29T12:13:12;99297.53;;;37.07;31.15
8748;BME280;4410;42.120;24.738;2022-07-29T12:19:00;99375.59;;;37.29;30.57
8748;BME280;4410;42.120;24.738;2022-07-29T12:21:28;99369.47;;;36.62;31.13
8748;BME280;4410;42.120;24.738;2022-07-29T12:23:56;99232.06;;;35.52;31.49
8748;BME280;4410;42.120;24.738;2022-07-29T12:26:24;99065.22;;;34.57;30.67
8748;BME280;4410;42.120;24.738;2022-07-29T12:28:54;99384.97;;;36.12;31.03
8748;BME280;4410;42.120;24.738;2022-07-29T12:31:27;99025.91;;;33.70;30.62
8748;BME280;4410;42.120;24.738;2022-07-29T12:33:54;99390.47;;;36.75;29.93
8748;BME280;4410;42.120;24.738;2022-07-29T12:36:29;99195.41;;;36.35;29.60
8748;BME280;4410;42.120;24.738;2022-07-29T12:38:57;99246.88;;;37.02;29.64
8748;BME280;4410;42.120;24.738;2022-07-29T12:41:24;99357.78;;;37.29;29.80
8748;BME280;4410;42.120;24.738;2022-07-29T12:43:54;98902.91;;;34.29;30.76
8748;BME280;4410;42.120;24.738;2022-07-29T12:46:28;99239.75;;;35.62;30.95
8748;BME280;4410;42.120;24.738;2022-07-29T12:48:58;99271.31;;;35.07;31.93
8748;BME280;4410;42.120;24.738;2022-07-29T12:51:30;98842.44;;;32.46;31.59
8748;BME280;4410;42.120;24.738;2022-07-29T12:54:13;99334.69;;;36.40;31.11
8748;BME280;4410;42.120;24.738;2022-07-29T12:56:44;99285.06;;;36.91;30.00
8748;BME280;4410;42.120;24.738;2022-07-29T12:59:14;99228.97;;;36.40;30.60
8748;BME280;4410;42.120;24.738;2022-07-29T13:01:42;98935.53;;;34.80;30.46
8748;BME280;4410;42.120;24.738;2022-07-29T13:04:27;99338.69;;;37.84;30.17
8748;BME280;4410;42.120;24.738;2022-07-29T13:07:04;99060.69;;;36.16;29.85
8748;BME280;4410;42.120;24.738;2022-07-29T13:09:44;98781.13;;;33.89;29.68
8748;BME280;4410;42.120;24.738;2022-07-29T13:12:29;98889.97;;;34.49;30.67
8748;BME280;4410;42.120;24.738;2022-07-29T13:14:59;99237.47;;;36.40;30.46
8748;BME280;4410;42.120;24.738;2022-07-29T13:17:45;98885.09;;;34.61;30.68
8748;BME280;4410;42.120;24.738;2022-07-29T13:20:30;98748.38;;;34.26;29.45
8748;BME280;4410;42.120;24.738;2022-07-29T13:23:22;99272.88;;;38.30;29.52
8748;BME280;4410;42.120;24.738;2022-07-29T13:26:05;99324.09;;;38.57;29.42
8748;BME280;4410;42.120;24.738;2022-07-29T13:28:33;99156.16;;;36.88;30.20
8748;BME280;4410;42.120;24.738;2022-07-29T13:31:01;99307.63;;;37.08;30.40
8748;BME280;4410;42.120;24.738;2022-07-29T13:33:43;98874.25;;;34.27;30.68
8748;BME280;4410;42.120;24.738;2022-07-29T13:36:40;99294.78;;;36.93;31.24
8748;BME280;4410;42.120;24.738;2022-07-29T13:39:15;99322.25;;;37.03;31.38
8748;BME280;4410;42.120;24.738;2022-07-29T13:41:45;99215.69;;;36.30;30.92
8748;BME280;4410;42.120;24.738;2022-07-29T13:44:15;99171.47;;;35.14;31.85
8748;BME280;4410;42.120;24.738;2022-07-29T13:46:45;99297.59;;;35.61;32.68
8748;BME280;4410;42.120;24.738;2022-07-29T13:49:46;99273.25;;;35.91;32.08
8748;BME280;4410;42.120;24.738;2022-07-29T13:52:17;98840.34;;;33.36;32.62
8748;BME280;4410;42.120;24.738;2022-07-29T13:58:05;99265.59;;;36.96;31.27
8748;BME280;4410;42.120;24.738;2022-07-29T14:04:08;98945.28;;;34.61;31.21
8748;BME280;4410;42.120;24.738;2022-07-29T14:06:38;99255.28;;;36.51;31.04
8748;BME280;4410;42.120;24.738;2022-07-29T14:12:48;98401.03;;;30.79;32.27
8748;BME280;4410;42.120;24.738;2022-07-29T14:15:19;98848.06;;;33.81;31.29
8748;BME280;4410;42.120;24.738;2022-07-29T14:17:47;99258.75;;;36.83;31.14
8748;BME280;4410;42.120;24.738;2022-07-29T14:20:19;98986.41;;;34.87;31.11
8748;BME280;4410;42.120;24.738;2022-07-29T14:22:47;98868.63;;;34.10;31.13
8748;BME280;4410;42.120;24.738;2022-07-29T14:25:17;98781.09;;;33.99;30.48
8748;BME280;4410;42.120;24.738;2022-07-29T14:27:47;98951.63;;;34.97;30.33
8748;BME280;4410;42.120;24.738;2022-07-29T14:30:21;99177.47;;;36.59;29.87
8748;BME280;4410;42.120;24.738;2022-07-29T14:32:54;98943.59;;;34.85;29.89
8748;BME280;4410;42.120;24.738;2022-07-29T14:35:21;98912.53;;;34.71;30.11
8748;BME280;4410;42.120;24.738;2022-07-29T14:37:48;98831.34;;;34.75;29.78
8748;BME280;4410;42.120;24.738;2022-07-29T14:40:37;99244.75;;;36.51;30.32
8748;BME280;4410;42.120;24.738;2022-07-29T14:43:41;99241.38;;;36.74;29.82
8748;BME280;4410;42.120;24.738;2022-07-29T14:46:22;99247.63;;;36.48;30.66
8748;BME280;4410;42.120;24.738;2022-07-29T14:49:01;99238.66;;;37.15;30.44
8748;BME280;4410;42.120;24.738;2022-07-29T14:51:28;99121.88;;;36.72;30.05
8748;BME280;4410;42.120;24.738;2022-07-29T14:53:54;99240.19;;;37.26;29.93
8748;BME280;4410;42.120;24.738;2022-07-29T14:56:23;99258.50;;;36.53;30.63
8748;BME280;4410;42.120;24.738;2022-07-29T14:58:50;99248.22;;;36.80;30.59
8748;BME280;4410;42.120;24.738;2022-07-29T15:01:21;99248.19;;;36.84;30.16
8748;BME280;4410;42.120;24.738;2022-07-29T15:13:36;98359.19;;;31.92;29.58
8748;BME280;4410;42.120;24.738;2022-07-29T15:16:08;99067.38;;;36.47;29.77
8748;BME280;4410;42.120;24.738;2022-07-29T15:18:39;98873.16;;;35.22;30.42
8748;BME280;4410;42.120;24.738;2022-07-29T15:21:06;98814.56;;;34.18;30.71
8748;BME280;4410;42.120;24.738;2022-07-29T15:23:36;98757.34;;;33.23;31.89
8748;BME280;4410;42.120;24.738;2022-07-29T15:26:06;98975.91;;;34.84;31.09
8748;BME280;4410;42.120;24.738;2022-07-29T15:28:36;99126.94;;;35.39;31.44
8748;BME280;4410;42.120;24.738;2022-07-29T15:31:09;99112.78;;;35.46;31.80
8748;BME280;4410;42.120;24.738;2022-07-29T15:33:38;99222.28;;;35.88;31.91
8748;BME280;4410;42.120;24.738;2022-07-29T15:36:07;99133.38;;;35.64;31.28
8748;BME280;4410;42.120;24.738;2022-07-29T15:38:42;99194.69;;;36.17;31.20
8748;BME280;4410;42.120;24.738;2022-07-29T15:41:13;99202.66;;;36.46;31.10
8748;BME280;4410;42.120;24.738;2022-07-29T15:43:43;99224.44;;;36.60;31.38
8748;BME280;4410;42.120;24.738;2022-07-29T15:46:14;99110.19;;;36.59;30.73
8748;BME280;4410;42.120;24.738;2022-07-29T15:49:00;98905.88;;;35.23;31.00
8748;BME280;4410;42.120;24.738;2022-07-29T15:51:30;99090.94;;;35.50;31.57
8748;BME280;4410;42.120;24.738;2022-07-29T15:53:57;99097.81;;;35.46;31.69
8748;BME280;4410;42.120;24.738;2022-07-29T15:56:42;99167.34;;;35.61;32.30
8748;BME280;4410;42.120;24.738;2022-07-29T15:59:27;99206.84;;;36.14;32.19
8748;BME280;4410;42.120;24.738;2022-07-29T16:01:55;99201.25;;;36.00;32.43
8748;BME280;4410;42.120;24.738;2022-07-29T16:04:23;99093.75;;;35.57;32.13
8748;BME280;4410;42.120;24.738;2022-07-29T16:06:50;99163.28;;;35.65;32.59
8748;BME280;4410;42.120;24.738;2022-07-29T16:09:34;99211.31;;;36.15;32.36
8748;BME280;4410;42.120;24.738;2022-07-29T16:12:33;99220.69;;;35.90;32.53
8748;BME280;4410;42.120;24.738;2022-07-29T16:15:18;98892.03;;;34.17;32.06
8748;BME280;4410;42.120;24.738;2022-07-29T16:24:27;99204.91;;;36.76;31.88
8748;BME280;4410;42.120;24.738;2022-07-29T16:27:11;99172.81;;;36.21;32.04
8748;BME280;4410;42.120;24.738;2022-07-29T16:29:48;99214.81;;;36.40;32.12
8748;BME280;4410;42.120;24.738;2022-07-29T16:35:46;99207.78;;;35.68;33.39
8748;BME280;4410;42.120;24.738;2022-07-29T16:38:22;99219.00;;;36.14;32.98
8748;BME280;4410;42.120;24.738;2022-07-29T16:41:33;98443.53;;;30.74;33.71
8748;BME280;4410;42.120;24.738;2022-07-29T16:44:00;99161.78;;;35.01;33.93
8748;BME280;4410;42.120;24.738;2022-07-29T16:46:28;99225.22;;;35.00;34.72
8748;BME280;4410;42.120;24.738;2022-07-29T16:49:23;99199.63;;;34.47;33.99
8748;BME280;4410;42.120;24.738;2022-07-29T16:51:53;99069.28;;;33.41;34.94
8748;BME280;4410;42.120;24.738;2022-07-29T17:01:34;99226.22;;;34.32;34.32
8748;BME280;4410;42.120;24.738;2022-07-29T17:07:23;99114.22;;;33.06;34.78
8748;BME280;4410;42.120;24.738;2022-07-29T17:10:09;98797.28;;;31.26;34.83
8748;BME280;4410;42.120;24.738;2022-07-29T17:12:36;99230.66;;;33.54;35.00
8748;BME280;4410;42.120;24.738;2022-07-29T17:15:08;99237.38;;;33.39;35.62
8748;BME280;4410;42.120;24.738;2022-07-29T17:17:38;99242.16;;;33.35;35.61
8748;BME280;4410;42.120;24.738;2022-07-29T17:20:17;99074.59;;;32.38;35.07
8748;BME280;4410;42.120;24.738;2022-07-29T17:25:54;99235.75;;;32.94;35.41
8748;BME280;4410;42.120;24.738;2022-07-29T17:28:52;99252.53;;;33.20;35.59
8748;BME280;4410;42.120;24.738;2022-07-29T17:41:38;98954.25;;;30.87;35.59
8748;BME280;4410;42.120;24.738;2022-07-29T17:44:37;99263.00;;;32.79;35.39